sensor_id;sensor_type;location;lat;lon;timestamp;temperature;humidity
10051;DHT22;5065;46.942;7.432;2023-11-18T00:02:11;7.70;99.90
10051;DHT22;5065;46.942;7.432;2023-11-18T00:04:39;7.60;99.90
10051;DHT22;5065;46.942;7.432;2023-11-18T00:07:06;7.50;99.90
10051;DHT22;5065;46.942;7.432;2023-11-18T00:09:35;7.80;99.90
10051;DHT22;5065;46.942;7.432;2023-11-18T00:12:03;7.60;99.90
10051;DHT22;5065;46.942;7.432;2023-11-18T00:14:32;7.50;99.90
10051;DHT22;5065;46.942;7.432;2023-11-18T00:16:59;7.50;99.90
10051;DHT22;5065;46.942;7.432;2023-11-18T00:19:28;7.70;99.90
10051;DHT22;5065;46.942;7.432;2023-11-18T00:21:55;7.50;99.90
10051;DHT22;5065;46.942;7.432;2023-11-18T00:24:23;7.50;99.90
10051;DHT22;5065;46.942;7.432;2023-11-18T00:26:50;7.70;99.90
10051;DHT22;5065;46.942;7.432;2023-11-18T00:29:17;7.40;99.90
10051;DHT22;5065;46.942;7.432;2023-11-18T00:31:47;7.40;99.90
10051;DHT22;5065;46.942;7.432;2023-11-18T00:34:14;7.40;99.90
10051;DHT22;5065;46.942;7.432;2023-11-18T00:36:42;7.40;99.90
10051;DHT22;5065;46.942;7.432;2023-11-18T00:39:09;7.30;99.90
10051;DHT22;5065;46.942;7.432;2023-11-18T00:41:36;7.40;99.90
10051;DHT22;5065;46.942;7.432;2023-11-18T00:44:03;7.30;99.90
10051;DHT22;5065;46.942;7.432;2023-11-18T00:46:33;7.30;99.90
10051;DHT22;5065;46.942;7.432;2023-11-18T00:49:03;7.30;99.90
10051;DHT22;5065;46.942;7.432;2023-11-18T00:51:30;7.50;99.90
10051;DHT22;5065;46.942;7.432;2023-11-18T00:53:58;7.20;99.90
10051;DHT22;5065;46.942;7.432;2023-11-18T00:56:27;7.30;99.90
10051;DHT22;5065;46.942;7.432;2023-11-18T00:58:55;7.30;99.90
10051;DHT22;5065;46.942;7.432;2023-11-18T01:01:22;7.30;99.90
10051;DHT22;5065;46.942;7.432;2023-11-18T01:03:50;7.30;99.90
10051;DHT22;5065;46.942;7.432;2023-11-18T01:06:18;7.30;99.90
10051;DHT22;5065;46.942;7.432;2023-11-18T01:08:45;7.10;99.90
10051;DHT22;5065;46.942;7.432;2023-11-18T01:11:16;7.20;99.90
10051;DHT22;5065;46.942;7.432;2023-11-18T01:13:45;7.20;99.90
10051;DHT22;5065;46.942;7.432;2023-11-18T01:16:12;7.30;99.90
10051;DHT22;5065;46.942;7.432;2023-11-18T01:18:40;7.10;99.90
10051;DHT22;5065;46.942;7.432;2023-11-18T01:21:07;7.20;99.90
10051;DHT22;5065;46.942;7.432;2023-11-18T01:23:36;7.10;99.90
10051;DHT22;5065;46.942;7.432;2023-11-18T01:26:05;7.00;99.90
10051;DHT22;5065;46.942;7.432;2023-11-18T01:28:31;7.10;99.90
10051;DHT22;5065;46.942;7.432;2023-11-18T01:31:02;7.00;99.90
10051;DHT22;5065;46.942;7.432;2023-11-18T01:33:30;7.10;99.90
10051;DHT22;5065;46.942;7.432;2023-11-18T01:35:58;7.00;99.90
10051;DHT22;5065;46.942;7.432;2023-11-18T01:38:25;7.00;99.90
10051;DHT22;5065;46.942;7.432;2023-11-18T01:40:54;7.00;99.90
10051;DHT22;5065;46.942;7.432;2023-11-18T01:43:21;7.00;99.90
10051;DHT22;5065;46.942;7.432;2023-11-18T01:45:48;7.00;99.90
10051;DHT22;5065;46.942;7.432;2023-11-18T01:48:16;7.00;99.90
10051;DHT22;5065;46.942;7.432;2023-11-18T01:50:43;6.90;99.90
10051;DHT22;5065;46.942;7.432;2023-11-18T01:53:13;6.70;99.90
10051;DHT22;5065;46.942;7.432;2023-11-18T01:55:40;6.90;99.90
10051;DHT22;5065;46.942;7.432;2023-11-18T01:58:10;6.90;99.90
10051;DHT22;5065;46.942;7.432;2023-11-18T02:00:40;6.90;99.90
10051;DHT22;5065;46.942;7.432;2023-11-18T02:03:08;6.90;99.90
10051;DHT22;5065;46.942;7.432;2023-11-18T02:05:37;6.90;99.90
10051;DHT22;5065;46.942;7.432;2023-11-18T02:08:05;6.80;99.90
10051;DHT22;5065;46.942;7.432;2023-11-18T02:10:42;6.80;99.90
10051;DHT22;5065;46.942;7.432;2023-11-18T02:13:21;6.80;99.90
10051;DHT22;5065;46.942;7.432;2023-11-18T02:15:53;6.70;99.90
10051;DHT22;5065;46.942;7.432;2023-11-18T02:18:24;6.60;99.90
10051;DHT22;5065;46.942;7.432;2023-11-18T02:20:52;6.60;99.90
10051;DHT22;5065;46.942;7.432;2023-11-18T02:23:20;6.50;99.90
10051;DHT22;5065;46.942;7.432;2023-11-18T02:25:50;6.50;99.90
10051;DHT22;5065;46.942;7.432;2023-11-18T02:28:18;6.40;99.90
10051;DHT22;5065;46.942;7.432;2023-11-18T02:30:45;6.30;99.90
10051;DHT22;5065;46.942;7.432;2023-11-18T02:33:19;6.30;99.90
10051;DHT22;5065;46.942;7.432;2023-11-18T02:35:51;6.30;99.90
10051;DHT22;5065;46.942;7.432;2023-11-18T02:38:26;6.20;99.90
10051;DHT22;5065;46.942;7.432;2023-11-18T02:40:58;6.20;99.90
10051;DHT22;5065;46.942;7.432;2023-11-18T02:43:26;6.20;99.90
10051;DHT22;5065;46.942;7.432;2023-11-18T02:45:55;6.40;99.90
10051;DHT22;5065;46.942;7.432;2023-11-18T02:48:23;6.10;99.90
10051;DHT22;5065;46.942;7.432;2023-11-18T02:50:53;6.10;99.90
10051;DHT22;5065;46.942;7.432;2023-11-18T02:53:20;6.00;99.90
10051;DHT22;5065;46.942;7.432;2023-11-18T02:55:47;6.20;99.90
10051;DHT22;5065;46.942;7.432;2023-11-18T02:58:20;6.10;99.90
10051;DHT22;5065;46.942;7.432;2023-11-18T03:00:47;6.20;99.90
10051;DHT22;5065;46.942;7.432;2023-11-18T03:03:15;6.00;99.90
10051;DHT22;5065;46.942;7.432;2023-11-18T03:05:42;6.10;99.90
10051;DHT22;5065;46.942;7.432;2023-11-18T03:08:09;6.20;99.90
10051;DHT22;5065;46.942;7.432;2023-11-18T03:10:37;6.10;99.90
10051;DHT22;5065;46.942;7.432;2023-11-18T03:13:04;6.20;99.90
10051;DHT22;5065;46.942;7.432;2023-11-18T03:15:36;6.20;99.90
10051;DHT22;5065;46.942;7.432;2023-11-18T03:18:04;6.20;99.90
10051;DHT22;5065;46.942;7.432;2023-11-18T03:20:33;6.20;99.90
10051;DHT22;5065;46.942;7.432;2023-11-18T03:23:01;6.30;99.90
10051;DHT22;5065;46.942;7.432;2023-11-18T03:25:28;6.20;99.90
10051;DHT22;5065;46.942;7.432;2023-11-18T03:27:55;6.30;99.90
10051;DHT22;5065;46.942;7.432;2023-11-18T03:30:22;6.20;99.90
10051;DHT22;5065;46.942;7.432;2023-11-18T03:32:50;6.20;99.90
10051;DHT22;5065;46.942;7.432;2023-11-18T03:35:18;6.20;99.90
10051;DHT22;5065;46.942;7.432;2023-11-18T03:37:45;6.40;99.90
10051;DHT22;5065;46.942;7.432;2023-11-18T03:40:14;6.20;99.90
10051;DHT22;5065;46.942;7.432;2023-11-18T03:42:41;6.30;99.90
10051;DHT22;5065;46.942;7.432;2023-11-18T03:45:09;6.40;99.90
10051;DHT22;5065;46.942;7.432;2023-11-18T03:47:36;6.30;99.90
10051;DHT22;5065;46.942;7.432;2023-11-18T03:50:06;6.20;99.90
10051;DHT22;5065;46.942;7.432;2023-11-18T03:52:36;6.20;99.90
10051;DHT22;5065;46.942;7.432;2023-11-18T03:55:04;6.20;99.90
10051;DHT22;5065;46.942;7.432;2023-11-18T03:57:31;6.10;99.90
10051;DHT22;5065;46.942;7.432;2023-11-18T03:59:58;6.40;99.90
10051;DHT22;5065;46.942;7.432;2023-11-18T04:02:25;6.10;99.90
10051;DHT22;5065;46.942;7.432;2023-11-18T04:04:52;6.10;99.90
10051;DHT22;5065;46.942;7.432;2023-11-18T04:07:21;6.10;99.90
10051;DHT22;5065;46.942;7.432;2023-11-18T04:09:48;6.20;99.90
10051;DHT22;5065;46.942;7.432;2023-11-18T04:12:15;6.20;99.90
10051;DHT22;5065;46.942;7.432;2023-11-18T04:14:42;6.10;99.90
10051;DHT22;5065;46.942;7.432;2023-11-18T04:17:10;6.40;99.90
10051;DHT22;5065;46.942;7.432;2023-11-18T04:19:37;6.30;99.90
10051;DHT22;5065;46.942;7.432;2023-11-18T04:22:05;6.20;99.90
10051;DHT22;5065;46.942;7.432;2023-11-18T04:24:33;6.20;99.90
10051;DHT22;5065;46.942;7.432;2023-11-18T04:27:01;6.20;99.90
10051;DHT22;5065;46.942;7.432;2023-11-18T04:29:28;6.20;99.90
10051;DHT22;5065;46.942;7.432;2023-11-18T04:31:55;6.40;99.90
10051;DHT22;5065;46.942;7.432;2023-11-18T04:34:23;6.20;99.90
10051;DHT22;5065;46.942;7.432;2023-11-18T04:36:50;6.20;99.90
10051;DHT22;5065;46.942;7.432;2023-11-18T04:39:17;6.20;99.90
10051;DHT22;5065;46.942;7.432;2023-11-18T04:41:48;6.20;99.90
10051;DHT22;5065;46.942;7.432;2023-11-18T04:44:15;6.40;99.90
10051;DHT22;5065;46.942;7.432;2023-11-18T04:46:43;6.20;99.90
10051;DHT22;5065;46.942;7.432;2023-11-18T04:49:10;6.30;99.90
10051;DHT22;5065;46.942;7.432;2023-11-18T04:51:37;6.50;99.90
10051;DHT22;5065;46.942;7.432;2023-11-18T04:54:05;6.20;99.90
10051;DHT22;5065;46.942;7.432;2023-11-18T04:56:33;6.20;99.90
10051;DHT22;5065;46.942;7.432;2023-11-18T04:59:04;6.20;99.90
10051;DHT22;5065;46.942;7.432;2023-11-18T05:01:31;6.20;99.90
10051;DHT22;5065;46.942;7.432;2023-11-18T05:03:59;6.20;99.90
10051;DHT22;5065;46.942;7.432;2023-11-18T05:06:26;6.20;99.90
10051;DHT22;5065;46.942;7.432;2023-11-18T05:08:53;6.40;99.90
10051;DHT22;5065;46.942;7.432;2023-11-18T05:11:20;6.20;99.90
10051;DHT22;5065;46.942;7.432;2023-11-18T05:13:47;6.20;99.90
10051;DHT22;5065;46.942;7.432;2023-11-18T05:16:16;6.20;99.90
10051;DHT22;5065;46.942;7.432;2023-11-18T05:18:43;6.10;99.90
10051;DHT22;5065;46.942;7.432;2023-11-18T05:21:10;6.20;99.90
10051;DHT22;5065;46.942;7.432;2023-11-18T05:23:37;6.10;99.90
10051;DHT22;5065;46.942;7.432;2023-11-18T05:26:05;6.40;99.90
10051;DHT22;5065;46.942;7.432;2023-11-18T05:28:33;6.20;99.90
10051;DHT22;5065;46.942;7.432;2023-11-18T05:31:00;6.20;99.90
10051;DHT22;5065;46.942;7.432;2023-11-18T05:33:29;6.20;99.90
10051;DHT22;5065;46.942;7.432;2023-11-18T05:36:00;6.20;99.90
10051;DHT22;5065;46.942;7.432;2023-11-18T05:38:28;6.30;99.90
10051;DHT22;5065;46.942;7.432;2023-11-18T05:41:00;6.20;99.90
10051;DHT22;5065;46.942;7.432;2023-11-18T05:43:30;6.20;99.90
10051;DHT22;5065;46.942;7.432;2023-11-18T05:46:02;6.20;99.90
10051;DHT22;5065;46.942;7.432;2023-11-18T05:48:47;6.20;99.90
10051;DHT22;5065;46.942;7.432;2023-11-18T05:51:19;6.20;99.90
10051;DHT22;5065;46.942;7.432;2023-11-18T05:53:47;6.20;99.90
10051;DHT22;5065;46.942;7.432;2023-11-18T05:56:14;6.20;99.90
10051;DHT22;5065;46.942;7.432;2023-11-18T05:58:43;6.30;99.90
10051;DHT22;5065;46.942;7.432;2023-11-18T06:01:11;6.30;99.90
10051;DHT22;5065;46.942;7.432;2023-11-18T06:03:39;6.20;99.90
10051;DHT22;5065;46.942;7.432;2023-11-18T06:06:10;6.40;99.90
10051;DHT22;5065;46.942;7.432;2023-11-18T06:08:37;6.10;99.90
10051;DHT22;5065;46.942;7.432;2023-11-18T06:11:07;6.20;99.90
10051;DHT22;5065;46.942;7.432;2023-11-18T06:13:40;6.10;99.90
10051;DHT22;5065;46.942;7.432;2023-11-18T06:16:16;6.10;99.90
10051;DHT22;5065;46.942;7.432;2023-11-18T06:18:46;6.00;99.90
10051;DHT22;5065;46.942;7.432;2023-11-18T06:21:16;6.10;99.90
10051;DHT22;5065;46.942;7.432;2023-11-18T06:23:44;6.10;99.90
10051;DHT22;5065;46.942;7.432;2023-11-18T06:26:13;6.00;99.90
10051;DHT22;5065;46.942;7.432;2023-11-18T06:28:40;6.00;99.90
10051;DHT22;5065;46.942;7.432;2023-11-18T06:31:09;5.90;99.90
10051;DHT22;5065;46.942;7.432;2023-11-18T06:33:38;5.90;99.90
10051;DHT22;5065;46.942;7.432;2023-11-18T06:36:09;6.00;99.90
10051;DHT22;5065;46.942;7.432;2023-11-18T06:38:41;6.00;99.90
10051;DHT22;5065;46.942;7.432;2023-11-18T06:41:10;6.00;99.90
10051;DHT22;5065;46.942;7.432;2023-11-18T06:43:40;5.90;99.90
10051;DHT22;5065;46.942;7.432;2023-11-18T06:46:18;6.00;99.90
10051;DHT22;5065;46.942;7.432;2023-11-18T06:48:48;6.30;99.90
10051;DHT22;5065;46.942;7.432;2023-11-18T06:51:16;6.00;99.90
10051;DHT22;5065;46.942;7.432;2023-11-18T06:53:44;6.00;99.90
10051;DHT22;5065;46.942;7.432;2023-11-18T06:56:13;6.00;99.90
10051;DHT22;5065;46.942;7.432;2023-11-18T06:58:41;6.20;99.90
10051;DHT22;5065;46.942;7.432;2023-11-18T07:01:08;6.20;99.90
10051;DHT22;5065;46.942;7.432;2023-11-18T07:03:36;6.00;99.90
10051;DHT22;5065;46.942;7.432;2023-11-18T07:06:04;6.10;99.90
10051;DHT22;5065;46.942;7.432;2023-11-18T07:08:32;6.20;99.90
10051;DHT22;5065;46.942;7.432;2023-11-18T07:11:03;6.20;99.90
10051;DHT22;5065;46.942;7.432;2023-11-18T07:13:32;6.30;99.90
10051;DHT22;5065;46.942;7.432;2023-11-18T07:16:01;6.40;99.90
10051;DHT22;5065;46.942;7.432;2023-11-18T07:18:29;6.60;99.90
10051;DHT22;5065;46.942;7.432;2023-11-18T07:20:58;6.70;99.90
10051;DHT22;5065;46.942;7.432;2023-11-18T07:23:26;6.80;99.90
10051;DHT22;5065;46.942;7.432;2023-11-18T07:25:53;7.10;99.90
10051;DHT22;5065;46.942;7.432;2023-11-18T07:28:23;7.60;99.90
10051;DHT22;5065;46.942;7.432;2023-11-18T07:30:52;7.40;99.90
10051;DHT22;5065;46.942;7.432;2023-11-18T07:33:19;7.60;99.90
10051;DHT22;5065;46.942;7.432;2023-11-18T07:35:48;7.60;99.90
10051;DHT22;5065;46.942;7.432;2023-11-18T07:38:15;7.70;99.90
10051;DHT22;5065;46.942;7.432;2023-11-18T07:40:43;7.60;99.90
10051;DHT22;5065;46.942;7.432;2023-11-18T07:43:11;7.60;99.90
10051;DHT22;5065;46.942;7.432;2023-11-18T07:45:40;7.40;99.90
10051;DHT22;5065;46.942;7.432;2023-11-18T07:48:08;7.40;99.90
10051;DHT22;5065;46.942;7.432;2023-11-18T07:50:39;7.30;99.90
10051;DHT22;5065;46.942;7.432;2023-11-18T07:53:07;7.30;99.90
10051;DHT22;5065;46.942;7.432;2023-11-18T07:55:35;7.40;99.90
10051;DHT22;5065;46.942;7.432;2023-11-18T07:58:05;7.40;99.90
10051;DHT22;5065;46.942;7.432;2023-11-18T08:00:37;7.50;99.90
10051;DHT22;5065;46.942;7.432;2023-11-18T08:03:06;7.60;99.90
10051;DHT22;5065;46.942;7.432;2023-11-18T08:05:37;7.60;99.90
10051;DHT22;5065;46.942;7.432;2023-11-18T08:08:05;7.70;99.90
10051;DHT22;5065;46.942;7.432;2023-11-18T08:10:33;7.60;99.90
10051;DHT22;5065;46.942;7.432;2023-11-18T08:13:03;7.60;99.90
10051;DHT22;5065;46.942;7.432;2023-11-18T08:15:38;7.50;99.90
10051;DHT22;5065;46.942;7.432;2023-11-18T08:18:07;7.60;99.90
10051;DHT22;5065;46.942;7.432;2023-11-18T08:20:36;7.60;99.90
10051;DHT22;5065;46.942;7.432;2023-11-18T08:23:03;7.60;99.90
10051;DHT22;5065;46.942;7.432;2023-11-18T08:25:32;7.60;99.90
10051;DHT22;5065;46.942;7.432;2023-11-18T08:27:59;7.60;99.90
10051;DHT22;5065;46.942;7.432;2023-11-18T08:30:27;7.50;99.90
10051;DHT22;5065;46.942;7.432;2023-11-18T08:32:54;7.50;99.90
10051;DHT22;5065;46.942;7.432;2023-11-18T08:35:24;7.50;99.90
10051;DHT22;5065;46.942;7.432;2023-11-18T08:37:51;7.60;99.90
10051;DHT22;5065;46.942;7.432;2023-11-18T08:40:18;7.60;99.90
10051;DHT22;5065;46.942;7.432;2023-11-18T08:42:48;7.60;99.90
10051;DHT22;5065;46.942;7.432;2023-11-18T08:45:17;7.70;99.90
10051;DHT22;5065;46.942;7.432;2023-11-18T08:47:44;7.80;99.90
10051;DHT22;5065;46.942;7.432;2023-11-18T08:50:13;7.80;99.90
10051;DHT22;5065;46.942;7.432;2023-11-18T08:52:44;7.80;99.90
10051;DHT22;5065;46.942;7.432;2023-11-18T08:55:13;7.80;99.90
10051;DHT22;5065;46.942;7.432;2023-11-18T08:57:45;7.80;99.90
10051;DHT22;5065;46.942;7.432;2023-11-18T09:00:25;7.80;99.90
10051;DHT22;5065;46.942;7.432;2023-11-18T09:03:10;7.80;99.90
10051;DHT22;5065;46.942;7.432;2023-11-18T09:05:44;7.70;99.90
10051;DHT22;5065;46.942;7.432;2023-11-18T09:08:24;7.80;99.90
10051;DHT22;5065;46.942;7.432;2023-11-18T09:10:53;8.00;99.90
10051;DHT22;5065;46.942;7.432;2023-11-18T09:13:21;7.90;99.90
10051;DHT22;5065;46.942;7.432;2023-11-18T09:15:49;7.90;99.90
10051;DHT22;5065;46.942;7.432;2023-11-18T09:18:16;8.00;99.90
10051;DHT22;5065;46.942;7.432;2023-11-18T09:20:45;8.00;99.90
10051;DHT22;5065;46.942;7.432;2023-11-18T09:23:13;8.10;99.90
10051;DHT22;5065;46.942;7.432;2023-11-18T09:25:43;8.10;99.90
10051;DHT22;5065;46.942;7.432;2023-11-18T09:28:13;8.10;99.90
10051;DHT22;5065;46.942;7.432;2023-11-18T09:30:42;8.20;99.90
10051;DHT22;5065;46.942;7.432;2023-11-18T09:33:18;8.30;99.90
10051;DHT22;5065;46.942;7.432;2023-11-18T09:35:52;8.50;99.90
10051;DHT22;5065;46.942;7.432;2023-11-18T09:38:27;8.60;99.90
10051;DHT22;5065;46.942;7.432;2023-11-18T09:40:56;8.70;99.90
10051;DHT22;5065;46.942;7.432;2023-11-18T09:43:29;8.70;99.90
10051;DHT22;5065;46.942;7.432;2023-11-18T09:46:06;8.80;99.90
10051;DHT22;5065;46.942;7.432;2023-11-18T09:48:41;8.90;99.90
10051;DHT22;5065;46.942;7.432;2023-11-18T09:51:18;8.90;99.90
10051;DHT22;5065;46.942;7.432;2023-11-18T09:53:49;8.90;99.90
10051;DHT22;5065;46.942;7.432;2023-11-18T09:56:28;9.00;99.90
10051;DHT22;5065;46.942;7.432;2023-11-18T09:59:08;9.10;99.90
10051;DHT22;5065;46.942;7.432;2023-11-18T10:01:43;9.10;99.90
10051;DHT22;5065;46.942;7.432;2023-11-18T10:04:12;9.20;99.90
10051;DHT22;5065;46.942;7.432;2023-11-18T10:06:44;9.20;99.90
10051;DHT22;5065;46.942;7.432;2023-11-18T10:09:12;9.40;99.90
10051;DHT22;5065;46.942;7.432;2023-11-18T10:11:47;9.40;99.90
10051;DHT22;5065;46.942;7.432;2023-11-18T10:14:15;9.40;99.90
10051;DHT22;5065;46.942;7.432;2023-11-18T10:16:43;9.70;99.90
10051;DHT22;5065;46.942;7.432;2023-11-18T10:19:12;9.60;99.90
10051;DHT22;5065;46.942;7.432;2023-11-18T10:21:40;9.60;99.90
10051;DHT22;5065;46.942;7.432;2023-11-18T10:24:08;9.50;99.90
10051;DHT22;5065;46.942;7.432;2023-11-18T10:26:43;9.50;99.90
10051;DHT22;5065;46.942;7.432;2023-11-18T10:29:12;9.60;99.90
10051;DHT22;5065;46.942;7.432;2023-11-18T10:31:39;9.60;99.90
10051;DHT22;5065;46.942;7.432;2023-11-18T10:34:12;9.60;99.90
10051;DHT22;5065;46.942;7.432;2023-11-18T10:36:41;9.60;99.90
10051;DHT22;5065;46.942;7.432;2023-11-18T10:39:28;9.80;99.90
10051;DHT22;5065;46.942;7.432;2023-11-18T10:42:03;9.50;99.90
10051;DHT22;5065;46.942;7.432;2023-11-18T10:44:30;9.40;99.90
10051;DHT22;5065;46.942;7.432;2023-11-18T10:46:58;9.40;99.90
10051;DHT22;5065;46.942;7.432;2023-11-18T10:49:27;9.30;99.90
10051;DHT22;5065;46.942;7.432;2023-11-18T10:51:55;9.40;99.90
10051;DHT22;5065;46.942;7.432;2023-11-18T10:54:23;9.30;99.90
10051;DHT22;5065;46.942;7.432;2023-11-18T10:56:52;9.30;99.90
10051;DHT22;5065;46.942;7.432;2023-11-18T10:59:23;9.20;99.90
10051;DHT22;5065;46.942;7.432;2023-11-18T11:01:52;9.30;99.90
10051;DHT22;5065;46.942;7.432;2023-11-18T11:04:23;9.30;99.90
10051;DHT22;5065;46.942;7.432;2023-11-18T11:06:51;9.60;99.90
10051;DHT22;5065;46.942;7.432;2023-11-18T11:09:23;9.30;99.90
10051;DHT22;5065;46.942;7.432;2023-11-18T11:11:54;9.30;99.90
10051;DHT22;5065;46.942;7.432;2023-11-18T11:14:33;9.30;99.90
10051;DHT22;5065;46.942;7.432;2023-11-18T11:17:06;9.30;99.90
10051;DHT22;5065;46.942;7.432;2023-11-18T11:19:48;9.30;99.90
10051;DHT22;5065;46.942;7.432;2023-11-18T11:22:24;9.30;99.90
10051;DHT22;5065;46.942;7.432;2023-11-18T11:25:03;9.30;99.90
10051;DHT22;5065;46.942;7.432;2023-11-18T11:27:43;9.20;99.90
10051;DHT22;5065;46.942;7.432;2023-11-18T11:30:22;9.30;99.90
10051;DHT22;5065;46.942;7.432;2023-11-18T11:32:51;9.30;99.90
10051;DHT22;5065;46.942;7.432;2023-11-18T11:35:23;9.30;99.90
10051;DHT22;5065;46.942;7.432;2023-11-18T11:37:52;9.20;99.90
10051;DHT22;5065;46.942;7.432;2023-11-18T11:40:23;9.20;99.90
10051;DHT22;5065;46.942;7.432;2023-11-18T11:42:51;9.30;99.90
10051;DHT22;5065;46.942;7.432;2023-11-18T11:45:23;9.20;99.90
10051;DHT22;5065;46.942;7.432;2023-11-18T11:47:55;9.30;99.90
10051;DHT22;5065;46.942;7.432;2023-11-18T11:50:53;9.30;99.90
10051;DHT22;5065;46.942;7.432;2023-11-18T11:53:24;9.30;99.90
10051;DHT22;5065;46.942;7.432;2023-11-18T11:55:54;9.30;99.90
10051;DHT22;5065;46.942;7.432;2023-11-18T11:58:31;9.30;99.90
10051;DHT22;5065;46.942;7.432;2023-11-18T12:01:01;9.30;99.90
10051;DHT22;5065;46.942;7.432;2023-11-18T12:03:38;9.30;99.90
10051;DHT22;5065;46.942;7.432;2023-11-18T12:06:06;9.40;99.90
10051;DHT22;5065;46.942;7.432;2023-11-18T12:08:35;9.30;99.90
10051;DHT22;5065;46.942;7.432;2023-11-18T12:11:05;9.40;99.90
10051;DHT22;5065;46.942;7.432;2023-11-18T12:13:37;9.30;99.90
10051;DHT22;5065;46.942;7.432;2023-11-18T12:16:08;9.60;99.90
10051;DHT22;5065;46.942;7.432;2023-11-18T12:18:36;9.40;99.90
10051;DHT22;5065;46.942;7.432;2023-11-18T12:21:03;9.30;99.90
10051;DHT22;5065;46.942;7.432;2023-11-18T12:23:31;9.30;99.90
10051;DHT22;5065;46.942;7.432;2023-11-18T12:26:00;9.20;99.90
10051;DHT22;5065;46.942;7.432;2023-11-18T12:28:29;9.20;99.90
10051;DHT22;5065;46.942;7.432;2023-11-18T12:31:01;9.10;99.90
10051;DHT22;5065;46.942;7.432;2023-11-18T12:34:02;9.00;99.90
10051;DHT22;5065;46.942;7.432;2023-11-18T12:36:56;8.90;99.90
10051;DHT22;5065;46.942;7.432;2023-11-18T12:42:59;8.90;99.90
10051;DHT22;5065;46.942;7.432;2023-11-18T12:48:43;8.90;99.90
10051;DHT22;5065;46.942;7.432;2023-11-18T12:51:14;8.90;99.90
10051;DHT22;5065;46.942;7.432;2023-11-18T12:53:47;8.90;99.90
10051;DHT22;5065;46.942;7.432;2023-11-18T12:56:17;8.90;99.90
10051;DHT22;5065;46.942;7.432;2023-11-18T12:58:45;8.90;99.90
10051;DHT22;5065;46.942;7.432;2023-11-18T13:01:13;9.10;99.90
10051;DHT22;5065;46.942;7.432;2023-11-18T13:03:42;8.80;99.90
10051;DHT22;5065;46.942;7.432;2023-11-18T13:06:10;8.80;99.90
10051;DHT22;5065;46.942;7.432;2023-11-18T13:08:39;8.80;99.90
10051;DHT22;5065;46.942;7.432;2023-11-18T13:11:07;8.80;99.90
10051;DHT22;5065;46.942;7.432;2023-11-18T13:13:41;8.70;99.90
10051;DHT22;5065;46.942;7.432;2023-11-18T13:16:08;8.90;99.90
10051;DHT22;5065;46.942;7.432;2023-11-18T13:18:43;8.90;99.90
10051;DHT22;5065;46.942;7.432;2023-11-18T13:21:17;9.00;99.90
10051;DHT22;5065;46.942;7.432;2023-11-18T13:23:52;8.90;99.90
10051;DHT22;5065;46.942;7.432;2023-11-18T13:26:20;9.10;99.90
10051;DHT22;5065;46.942;7.432;2023-11-18T13:28:48;8.90;99.90
10051;DHT22;5065;46.942;7.432;2023-11-18T13:31:16;8.90;99.90
10051;DHT22;5065;46.942;7.432;2023-11-18T13:33:47;8.90;99.90
10051;DHT22;5065;46.942;7.432;2023-11-18T13:36:14;8.90;99.90
10051;DHT22;5065;46.942;7.432;2023-11-18T13:38:42;9.00;99.90
10051;DHT22;5065;46.942;7.432;2023-11-18T13:41:11;9.20;99.90
10051;DHT22;5065;46.942;7.432;2023-11-18T13:43:42;8.90;99.90
10051;DHT22;5065;46.942;7.432;2023-11-18T13:46:13;8.90;99.90
10051;DHT22;5065;46.942;7.432;2023-11-18T13:48:40;8.90;99.90
10051;DHT22;5065;46.942;7.432;2023-11-18T13:51:09;9.00;99.90
10051;DHT22;5065;46.942;7.432;2023-11-18T13:53:39;9.00;99.90
10051;DHT22;5065;46.942;7.432;2023-11-18T13:56:11;9.10;99.90
10051;DHT22;5065;46.942;7.432;2023-11-18T13:58:38;9.10;99.90
10051;DHT22;5065;46.942;7.432;2023-11-18T14:01:06;9.10;99.90
10051;DHT22;5065;46.942;7.432;2023-11-18T14:03:34;9.10;99.90
10051;DHT22;5065;46.942;7.432;2023-11-18T14:06:05;9.20;99.90
10051;DHT22;5065;46.942;7.432;2023-11-18T14:08:32;9.10;99.90
10051;DHT22;5065;46.942;7.432;2023-11-18T14:11:00;9.20;99.90
10051;DHT22;5065;46.942;7.432;2023-11-18T14:13:29;9.30;99.90
10051;DHT22;5065;46.942;7.432;2023-11-18T14:15:57;9.40;99.90
10051;DHT22;5065;46.942;7.432;2023-11-18T14:18:25;9.40;99.90
10051;DHT22;5065;46.942;7.432;2023-11-18T14:20:53;9.40;99.90
10051;DHT22;5065;46.942;7.432;2023-11-18T14:23:20;9.40;99.90
10051;DHT22;5065;46.942;7.432;2023-11-18T14:25:48;9.40;99.90
10051;DHT22;5065;46.942;7.432;2023-11-18T14:28:15;9.40;99.90
10051;DHT22;5065;46.942;7.432;2023-11-18T14:30:44;9.70;99.90
10051;DHT22;5065;46.942;7.432;2023-11-18T14:33:12;9.50;99.90
10051;DHT22;5065;46.942;7.432;2023-11-18T14:35:39;9.70;99.90
10051;DHT22;5065;46.942;7.432;2023-11-18T14:38:06;9.50;99.90
10051;DHT22;5065;46.942;7.432;2023-11-18T14:40:34;9.70;99.90
10051;DHT22;5065;46.942;7.432;2023-11-18T14:43:02;9.60;99.90
10051;DHT22;5065;46.942;7.432;2023-11-18T14:45:30;9.60;99.90
10051;DHT22;5065;46.942;7.432;2023-11-18T14:47:59;9.50;99.90
10051;DHT22;5065;46.942;7.432;2023-11-18T14:50:26;9.50;99.90
10051;DHT22;5065;46.942;7.432;2023-11-18T14:52:54;9.60;99.90
10051;DHT22;5065;46.942;7.432;2023-11-18T14:55:25;9.40;99.90
10051;DHT22;5065;46.942;7.432;2023-11-18T14:57:52;9.50;99.90
10051;DHT22;5065;46.942;7.432;2023-11-18T15:00:21;9.50;99.90
10051;DHT22;5065;46.942;7.432;2023-11-18T15:02:51;9.50;99.90
10051;DHT22;5065;46.942;7.432;2023-11-18T15:05:21;9.50;99.90
10051;DHT22;5065;46.942;7.432;2023-11-18T15:07:50;9.40;99.90
10051;DHT22;5065;46.942;7.432;2023-11-18T15:10:19;9.40;99.90
10051;DHT22;5065;46.942;7.432;2023-11-18T15:12:47;9.40;99.90
10051;DHT22;5065;46.942;7.432;2023-11-18T15:15:19;9.60;99.90
10051;DHT22;5065;46.942;7.432;2023-11-18T15:17:47;9.40;99.90
10051;DHT22;5065;46.942;7.432;2023-11-18T15:20:15;9.40;99.90
10051;DHT22;5065;46.942;7.432;2023-11-18T15:22:46;9.30;99.90
10051;DHT22;5065;46.942;7.432;2023-11-18T15:25:13;9.30;99.90
10051;DHT22;5065;46.942;7.432;2023-11-18T15:27:41;9.30;99.90
10051;DHT22;5065;46.942;7.432;2023-11-18T15:30:11;9.30;99.90
10051;DHT22;5065;46.942;7.432;2023-11-18T15:32:39;9.30;99.90
10051;DHT22;5065;46.942;7.432;2023-11-18T15:35:07;9.30;99.90
10051;DHT22;5065;46.942;7.432;2023-11-18T15:37:36;9.30;99.90
10051;DHT22;5065;46.942;7.432;2023-11-18T15:40:07;9.40;99.90
10051;DHT22;5065;46.942;7.432;2023-11-18T15:42:37;9.40;99.90
10051;DHT22;5065;46.942;7.432;2023-11-18T15:45:07;9.30;99.90
10051;DHT22;5065;46.942;7.432;2023-11-18T15:47:35;9.40;99.90
10051;DHT22;5065;46.942;7.432;2023-11-18T15:50:04;9.40;99.90
10051;DHT22;5065;46.942;7.432;2023-11-18T15:52:33;9.40;99.90
10051;DHT22;5065;46.942;7.432;2023-11-18T15:55:01;9.40;99.90
10051;DHT22;5065;46.942;7.432;2023-11-18T15:57:37;9.30;99.90
10051;DHT22;5065;46.942;7.432;2023-11-18T16:00:06;9.40;99.90
10051;DHT22;5065;46.942;7.432;2023-11-18T16:02:36;9.40;99.90
10051;DHT22;5065;46.942;7.432;2023-11-18T16:05:06;9.40;99.90
10051;DHT22;5065;46.942;7.432;2023-11-18T16:07:34;9.30;99.90
10051;DHT22;5065;46.942;7.432;2023-11-18T16:10:01;9.30;99.90
10051;DHT22;5065;46.942;7.432;2023-11-18T16:12:28;9.30;99.90
10051;DHT22;5065;46.942;7.432;2023-11-18T16:14:57;9.30;99.90
10051;DHT22;5065;46.942;7.432;2023-11-18T16:17:24;9.40;99.90
10051;DHT22;5065;46.942;7.432;2023-11-18T16:19:52;9.30;99.90
10051;DHT22;5065;46.942;7.432;2023-11-18T16:22:20;9.40;99.90
10051;DHT22;5065;46.942;7.432;2023-11-18T16:24:47;9.50;99.90